sensor_id;sensor_type;location;lat;lon;timestamp;P1;durP1;ratioP1;P2;durP2;ratioP2
11943;SDS011;6031;50.220;10.122;2022-10-31T00:00:52;10.50;;;7.87;;
11943;SDS011;6031;50.220;10.122;2022-10-31T00:03:17;15.47;;;9.13;;
11943;SDS011;6031;50.220;10.122;2022-10-31T00:05:43;11.07;;;9.17;;
11943;SDS011;6031;50.220;10.122;2022-10-31T00:08:11;14.60;;;10.30;;
11943;SDS011;6031;50.220;10.122;2022-10-31T00:10:43;11.93;;;9.37;;
11943;SDS011;6031;50.220;10.122;2022-10-31T00:13:10;10.70;;;9.60;;
11943;SDS011;6031;50.220;10.122;2022-10-31T00:15:37;19.70;;;9.03;;
11943;SDS011;6031;50.220;10.122;2022-10-31T00:18:04;13.63;;;9.40;;
11943;SDS011;6031;50.220;10.122;2022-10-31T00:20:30;12.77;;;8.80;;
11943;SDS011;6031;50.220;10.122;2022-10-31T00:23:00;14.77;;;9.43;;
11943;SDS011;6031;50.220;10.122;2022-10-31T00:25:27;15.00;;;9.87;;
11943;SDS011;6031;50.220;10.122;2022-10-31T00:27:53;13.13;;;10.13;;
11943;SDS011;6031;50.220;10.122;2022-10-31T00:30:19;13.67;;;9.27;;
11943;SDS011;6031;50.220;10.122;2022-10-31T00:32:45;28.90;;;11.50;;
11943;SDS011;6031;50.220;10.122;2022-10-31T00:35:10;16.23;;;10.07;;
11943;SDS011;6031;50.220;10.122;2022-10-31T00:37:36;15.63;;;9.80;;
11943;SDS011;6031;50.220;10.122;2022-10-31T00:40:01;12.73;;;9.33;;
11943;SDS011;6031;50.220;10.122;2022-10-31T00:42:27;11.53;;;9.23;;
11943;SDS011;6031;50.220;10.122;2022-10-31T00:44:53;13.70;;;9.27;;
11943;SDS011;6031;50.220;10.122;2022-10-31T00:47:18;10.23;;;8.43;;
11943;SDS011;6031;50.220;10.122;2022-10-31T00:49:44;11.97;;;8.77;;
11943;SDS011;6031;50.220;10.122;2022-10-31T00:52:09;14.93;;;8.67;;
11943;SDS011;6031;50.220;10.122;2022-10-31T00:54:35;12.63;;;10.33;;
11943;SDS011;6031;50.220;10.122;2022-10-31T00:57:00;15.93;;;8.93;;
11943;SDS011;6031;50.220;10.122;2022-10-31T00:59:26;10.87;;;8.00;;
11943;SDS011;6031;50.220;10.122;2022-10-31T01:01:51;13.87;;;8.73;;
11943;SDS011;6031;50.220;10.122;2022-10-31T01:04:17;11.07;;;8.17;;
11943;SDS011;6031;50.220;10.122;2022-10-31T01:06:42;10.87;;;7.70;;
11943;SDS011;6031;50.220;10.122;2022-10-31T01:09:08;8.57;;;7.67;;
11943;SDS011;6031;50.220;10.122;2022-10-31T01:11:33;10.93;;;8.70;;
11943;SDS011;6031;50.220;10.122;2022-10-31T01:13:59;13.10;;;6.53;;
11943;SDS011;6031;50.220;10.122;2022-10-31T01:16:25;7.33;;;6.50;;
11943;SDS011;6031;50.220;10.122;2022-10-31T01:18:52;7.60;;;6.50;;
11943;SDS011;6031;50.220;10.122;2022-10-31T01:21:21;11.57;;;6.97;;
11943;SDS011;6031;50.220;10.122;2022-10-31T01:23:48;8.17;;;6.53;;
11943;SDS011;6031;50.220;10.122;2022-10-31T01:26:19;6.97;;;6.17;;
11943;SDS011;6031;50.220;10.122;2022-10-31T01:28:48;16.33;;;6.80;;
11943;SDS011;6031;50.220;10.122;2022-10-31T01:31:16;60.73;;;9.43;;
11943;SDS011;6031;50.220;10.122;2022-10-31T01:33:43;9.50;;;7.47;;
11943;SDS011;6031;50.220;10.122;2022-10-31T01:36:17;8.73;;;6.53;;
11943;SDS011;6031;50.220;10.122;2022-10-31T01:38:50;10.93;;;7.27;;
11943;SDS011;6031;50.220;10.122;2022-10-31T01:41:20;7.23;;;6.53;;
11943;SDS011;6031;50.220;10.122;2022-10-31T01:46:20;10.20;;;6.50;;
11943;SDS011;6031;50.220;10.122;2022-10-31T01:48:53;10.37;;;6.47;;
11943;SDS011;6031;50.220;10.122;2022-10-31T01:51:20;8.37;;;6.87;;
11943;SDS011;6031;50.220;10.122;2022-10-31T01:53:51;7.97;;;6.83;;
11943;SDS011;6031;50.220;10.122;2022-10-31T01:56:20;7.10;;;6.40;;
11943;SDS011;6031;50.220;10.122;2022-10-31T01:58:46;14.13;;;6.63;;
11943;SDS011;6031;50.220;10.122;2022-10-31T02:01:12;7.83;;;6.33;;
11943;SDS011;6031;50.220;10.122;2022-10-31T02:03:40;10.60;;;6.87;;
11943;SDS011;6031;50.220;10.122;2022-10-31T02:06:08;7.93;;;7.13;;
11943;SDS011;6031;50.220;10.122;2022-10-31T02:08:40;8.47;;;7.23;;
11943;SDS011;6031;50.220;10.122;2022-10-31T02:11:07;11.73;;;7.70;;
11943;SDS011;6031;50.220;10.122;2022-10-31T02:13:34;10.63;;;7.60;;
11943;SDS011;6031;50.220;10.122;2022-10-31T02:15:59;16.73;;;6.97;;
11943;SDS011;6031;50.220;10.122;2022-10-31T02:18:26;7.67;;;6.87;;
11943;SDS011;6031;50.220;10.122;2022-10-31T02:29:23;11.87;;;7.10;;
11943;SDS011;6031;50.220;10.122;2022-10-31T02:32:13;8.77;;;5.97;;
11943;SDS011;6031;50.220;10.122;2022-10-31T02:34:52;11.80;;;6.30;;
11943;SDS011;6031;50.220;10.122;2022-10-31T02:37:34;11.33;;;6.40;;
11943;SDS011;6031;50.220;10.122;2022-10-31T02:46:10;8.97;;;6.20;;
11943;SDS011;6031;50.220;10.122;2022-10-31T02:48:38;18.20;;;5.60;;
11943;SDS011;6031;50.220;10.122;2022-10-31T02:51:07;6.53;;;5.93;;
11943;SDS011;6031;50.220;10.122;2022-10-31T02:53:35;11.53;;;5.77;;
11943;SDS011;6031;50.220;10.122;2022-10-31T02:56:04;6.83;;;5.97;;
11943;SDS011;6031;50.220;10.122;2022-10-31T02:58:38;6.60;;;5.80;;
11943;SDS011;6031;50.220;10.122;2022-10-31T03:09:33;7.17;;;5.60;;
11943;SDS011;6031;50.220;10.122;2022-10-31T03:12:11;6.77;;;5.40;;
11943;SDS011;6031;50.220;10.122;2022-10-31T03:14:48;17.40;;;5.70;;
11943;SDS011;6031;50.220;10.122;2022-10-31T03:17:26;7.00;;;5.40;;
11943;SDS011;6031;50.220;10.122;2022-10-31T03:19:58;7.47;;;5.73;;
11943;SDS011;6031;50.220;10.122;2022-10-31T03:22:27;6.30;;;5.77;;
11943;SDS011;6031;50.220;10.122;2022-10-31T03:24:56;6.53;;;5.47;;
11943;SDS011;6031;50.220;10.122;2022-10-31T03:27:25;5.87;;;5.37;;
11943;SDS011;6031;50.220;10.122;2022-10-31T03:29:56;8.13;;;5.87;;
11943;SDS011;6031;50.220;10.122;2022-10-31T03:32:26;6.57;;;5.77;;
11943;SDS011;6031;50.220;10.122;2022-10-31T03:34:57;6.00;;;5.40;;
11943;SDS011;6031;50.220;10.122;2022-10-31T03:37:26;6.87;;;5.53;;
11943;SDS011;6031;50.220;10.122;2022-10-31T03:39:55;6.53;;;5.90;;
11943;SDS011;6031;50.220;10.122;2022-10-31T03:42:24;5.80;;;5.30;;
11943;SDS011;6031;50.220;10.122;2022-10-31T03:47:37;5.23;;;4.83;;
11943;SDS011;6031;50.220;10.122;2022-10-31T03:50:05;6.77;;;5.90;;
11943;SDS011;6031;50.220;10.122;2022-10-31T03:52:37;7.07;;;6.07;;
11943;SDS011;6031;50.220;10.122;2022-10-31T03:55:17;5.97;;;5.37;;
11943;SDS011;6031;50.220;10.122;2022-10-31T03:58:02;6.57;;;5.63;;
11943;SDS011;6031;50.220;10.122;2022-10-31T04:00:32;20.90;;;6.27;;
11943;SDS011;6031;50.220;10.122;2022-10-31T04:03:00;7.80;;;5.47;;
11943;SDS011;6031;50.220;10.122;2022-10-31T04:05:30;5.57;;;4.97;;
11943;SDS011;6031;50.220;10.122;2022-10-31T04:07:57;5.30;;;4.90;;
11943;SDS011;6031;50.220;10.122;2022-10-31T04:10:25;10.03;;;5.17;;
11943;SDS011;6031;50.220;10.122;2022-10-31T04:12:56;14.27;;;5.40;;
11943;SDS011;6031;50.220;10.122;2022-10-31T04:15:26;7.50;;;5.37;;
11943;SDS011;6031;50.220;10.122;2022-10-31T04:17:53;10.53;;;5.90;;
11943;SDS011;6031;50.220;10.122;2022-10-31T04:20:34;9.23;;;6.03;;
11943;SDS011;6031;50.220;10.122;2022-10-31T04:23:02;21.23;;;4.80;;
11943;SDS011;6031;50.220;10.122;2022-10-31T04:25:28;6.10;;;4.87;;
11943;SDS011;6031;50.220;10.122;2022-10-31T04:27:54;6.13;;;4.33;;
11943;SDS011;6031;50.220;10.122;2022-10-31T04:30:20;8.57;;;4.67;;
11943;SDS011;6031;50.220;10.122;2022-10-31T04:32:46;15.03;;;11.00;;
11943;SDS011;6031;50.220;10.122;2022-10-31T04:35:12;13.17;;;9.77;;
11943;SDS011;6031;50.220;10.122;2022-10-31T04:37:37;16.10;;;6.27;;
11943;SDS011;6031;50.220;10.122;2022-10-31T04:40:03;12.93;;;6.03;;
11943;SDS011;6031;50.220;10.122;2022-10-31T04:42:29;7.97;;;5.50;;
11943;SDS011;6031;50.220;10.122;2022-10-31T04:44:55;5.63;;;5.00;;
11943;SDS011;6031;50.220;10.122;2022-10-31T04:47:21;12.30;;;5.57;;
11943;SDS011;6031;50.220;10.122;2022-10-31T04:49:46;8.30;;;4.10;;
11943;SDS011;6031;50.220;10.122;2022-10-31T04:52:12;28.43;;;5.83;;
11943;SDS011;6031;50.220;10.122;2022-10-31T04:54:38;6.57;;;4.27;;
11943;SDS011;6031;50.220;10.122;2022-10-31T04:57:03;15.63;;;4.70;;
11943;SDS011;6031;50.220;10.122;2022-10-31T04:59:29;20.93;;;6.30;;
11943;SDS011;6031;50.220;10.122;2022-10-31T05:01:55;5.03;;;4.13;;
11943;SDS011;6031;50.220;10.122;2022-10-31T05:04:20;5.60;;;4.47;;
11943;SDS011;6031;50.220;10.122;2022-10-31T05:06:46;4.80;;;4.40;;
11943;SDS011;6031;50.220;10.122;2022-10-31T05:09:11;5.67;;;4.30;;
11943;SDS011;6031;50.220;10.122;2022-10-31T05:11:37;20.97;;;4.53;;
11943;SDS011;6031;50.220;10.122;2022-10-31T05:14:02;5.20;;;3.80;;
11943;SDS011;6031;50.220;10.122;2022-10-31T05:16:28;5.77;;;3.70;;
11943;SDS011;6031;50.220;10.122;2022-10-31T05:18:53;5.50;;;3.50;;
11943;SDS011;6031;50.220;10.122;2022-10-31T05:21:19;4.23;;;3.73;;
11943;SDS011;6031;50.220;10.122;2022-10-31T05:23:44;10.50;;;4.00;;
11943;SDS011;6031;50.220;10.122;2022-10-31T05:26:10;8.57;;;3.83;;
11943;SDS011;6031;50.220;10.122;2022-10-31T05:28:36;22.33;;;4.17;;
11943;SDS011;6031;50.220;10.122;2022-10-31T05:31:01;3.83;;;3.53;;
11943;SDS011;6031;50.220;10.122;2022-10-31T05:33:27;7.13;;;4.47;;
11943;SDS011;6031;50.220;10.122;2022-10-31T05:35:52;4.63;;;4.23;;
11943;SDS011;6031;50.220;10.122;2022-10-31T05:38:18;5.30;;;3.70;;
11943;SDS011;6031;50.220;10.122;2022-10-31T05:40:43;6.50;;;4.53;;
11943;SDS011;6031;50.220;10.122;2022-10-31T05:43:09;4.90;;;4.40;;
11943;SDS011;6031;50.220;10.122;2022-10-31T05:45:34;21.77;;;5.30;;
11943;SDS011;6031;50.220;10.122;2022-10-31T05:48:00;4.70;;;4.13;;
11943;SDS011;6031;50.220;10.122;2022-10-31T05:50:27;13.00;;;4.30;;
11943;SDS011;6031;50.220;10.122;2022-10-31T05:53:03;5.30;;;4.27;;
11943;SDS011;6031;50.220;10.122;2022-10-31T05:55:30;7.90;;;4.83;;
11943;SDS011;6031;50.220;10.122;2022-10-31T05:57:57;5.67;;;5.10;;
11943;SDS011;6031;50.220;10.122;2022-10-31T06:00:23;5.70;;;4.87;;
11943;SDS011;6031;50.220;10.122;2022-10-31T06:02:57;6.63;;;5.30;;
11943;SDS011;6031;50.220;10.122;2022-10-31T06:05:23;5.83;;;5.17;;
11943;SDS011;6031;50.220;10.122;2022-10-31T06:07:49;4.73;;;4.33;;
11943;SDS011;6031;50.220;10.122;2022-10-31T06:10:14;5.93;;;4.60;;
11943;SDS011;6031;50.220;10.122;2022-10-31T06:12:40;6.43;;;5.70;;
11943;SDS011;6031;50.220;10.122;2022-10-31T06:15:06;5.67;;;5.00;;
11943;SDS011;6031;50.220;10.122;2022-10-31T06:17:33;7.63;;;5.70;;
11943;SDS011;6031;50.220;10.122;2022-10-31T06:19:59;9.57;;;5.97;;
11943;SDS011;6031;50.220;10.122;2022-10-31T06:22:25;6.10;;;5.37;;
11943;SDS011;6031;50.220;10.122;2022-10-31T06:24:51;7.03;;;6.27;;
11943;SDS011;6031;50.220;10.122;2022-10-31T06:27:16;11.57;;;8.07;;
11943;SDS011;6031;50.220;10.122;2022-10-31T06:29:42;8.50;;;5.97;;
11943;SDS011;6031;50.220;10.122;2022-10-31T06:32:11;7.80;;;5.80;;
11943;SDS011;6031;50.220;10.122;2022-10-31T06:34:37;19.60;;;6.00;;
11943;SDS011;6031;50.220;10.122;2022-10-31T06:37:03;13.37;;;7.43;;
11943;SDS011;6031;50.220;10.122;2022-10-31T06:39:30;7.17;;;6.20;;
11943;SDS011;6031;50.220;10.122;2022-10-31T06:41:55;24.97;;;6.00;;
11943;SDS011;6031;50.220;10.122;2022-10-31T06:44:21;10.30;;;5.60;;
11943;SDS011;6031;50.220;10.122;2022-10-31T06:46:46;5.33;;;4.40;;
11943;SDS011;6031;50.220;10.122;2022-10-31T06:49:12;6.17;;;5.00;;
11943;SDS011;6031;50.220;10.122;2022-10-31T06:51:38;5.13;;;4.67;;
11943;SDS011;6031;50.220;10.122;2022-10-31T06:54:03;6.13;;;4.77;;
11943;SDS011;6031;50.220;10.122;2022-10-31T06:56:29;7.27;;;5.00;;
11943;SDS011;6031;50.220;10.122;2022-10-31T06:58:54;7.30;;;5.07;;
11943;SDS011;6031;50.220;10.122;2022-10-31T07:01:20;7.10;;;5.00;;
11943;SDS011;6031;50.220;10.122;2022-10-31T07:03:45;15.33;;;4.73;;
11943;SDS011;6031;50.220;10.122;2022-10-31T07:06:11;5.80;;;4.57;;
11943;SDS011;6031;50.220;10.122;2022-10-31T07:08:36;4.93;;;4.47;;
11943;SDS011;6031;50.220;10.122;2022-10-31T07:11:02;11.33;;;5.50;;
11943;SDS011;6031;50.220;10.122;2022-10-31T07:13:27;8.47;;;5.70;;
11943;SDS011;6031;50.220;10.122;2022-10-31T07:15:54;7.07;;;5.00;;
11943;SDS011;6031;50.220;10.122;2022-10-31T07:18:20;5.20;;;4.57;;
11943;SDS011;6031;50.220;10.122;2022-10-31T07:20:47;15.27;;;5.07;;
11943;SDS011;6031;50.220;10.122;2022-10-31T07:23:12;7.77;;;5.10;;
11943;SDS011;6031;50.220;10.122;2022-10-31T07:25:41;8.07;;;7.03;;
11943;SDS011;6031;50.220;10.122;2022-10-31T07:28:07;11.13;;;6.23;;
11943;SDS011;6031;50.220;10.122;2022-10-31T07:30:32;7.60;;;6.23;;
11943;SDS011;6031;50.220;10.122;2022-10-31T07:32:58;8.90;;;6.40;;
11943;SDS011;6031;50.220;10.122;2022-10-31T07:35:24;6.27;;;5.40;;
11943;SDS011;6031;50.220;10.122;2022-10-31T07:37:51;7.17;;;6.47;;
11943;SDS011;6031;50.220;10.122;2022-10-31T07:40:17;6.10;;;4.37;;
11943;SDS011;6031;50.220;10.122;2022-10-31T07:42:44;9.13;;;4.57;;
11943;SDS011;6031;50.220;10.122;2022-10-31T07:45:12;5.10;;;4.60;;
11943;SDS011;6031;50.220;10.122;2022-10-31T07:47:39;8.40;;;5.23;;
11943;SDS011;6031;50.220;10.122;2022-10-31T07:50:06;8.50;;;5.20;;
11943;SDS011;6031;50.220;10.122;2022-10-31T07:52:32;7.50;;;5.30;;
11943;SDS011;6031;50.220;10.122;2022-10-31T07:54:58;7.43;;;5.37;;
11943;SDS011;6031;50.220;10.122;2022-10-31T07:57:23;8.43;;;4.60;;
11943;SDS011;6031;50.220;10.122;2022-10-31T07:59:49;8.77;;;4.57;;
11943;SDS011;6031;50.220;10.122;2022-10-31T08:02:15;5.77;;;5.00;;
11943;SDS011;6031;50.220;10.122;2022-10-31T08:04:41;6.73;;;6.03;;
11943;SDS011;6031;50.220;10.122;2022-10-31T08:07:06;7.27;;;5.10;;
11943;SDS011;6031;50.220;10.122;2022-10-31T08:09:32;5.60;;;5.00;;
11943;SDS011;6031;50.220;10.122;2022-10-31T08:11:57;6.87;;;5.27;;
11943;SDS011;6031;50.220;10.122;2022-10-31T08:14:23;7.30;;;5.20;;
11943;SDS011;6031;50.220;10.122;2022-10-31T08:16:48;5.07;;;4.53;;
11943;SDS011;6031;50.220;10.122;2022-10-31T08:19:14;7.30;;;5.00;;
11943;SDS011;6031;50.220;10.122;2022-10-31T08:21:39;9.80;;;5.47;;
11943;SDS011;6031;50.220;10.122;2022-10-31T08:24:05;9.03;;;6.07;;
11943;SDS011;6031;50.220;10.122;2022-10-31T08:26:31;7.93;;;5.13;;
11943;SDS011;6031;50.220;10.122;2022-10-31T08:28:57;10.33;;;6.17;;
11943;SDS011;6031;50.220;10.122;2022-10-31T08:31:23;13.33;;;7.03;;
11943;SDS011;6031;50.220;10.122;2022-10-31T08:33:51;10.30;;;6.37;;
11943;SDS011;6031;50.220;10.122;2022-10-31T08:36:17;11.97;;;7.10;;
11943;SDS011;6031;50.220;10.122;2022-10-31T08:38:43;8.37;;;6.63;;
11943;SDS011;6031;50.220;10.122;2022-10-31T08:41:08;21.47;;;7.57;;
11943;SDS011;6031;50.220;10.122;2022-10-31T08:43:34;10.67;;;8.50;;
11943;SDS011;6031;50.220;10.122;2022-10-31T08:45:59;10.17;;;8.00;;
11943;SDS011;6031;50.220;10.122;2022-10-31T08:48:25;10.17;;;7.40;;
11943;SDS011;6031;50.220;10.122;2022-10-31T08:50:50;9.83;;;7.60;;
11943;SDS011;6031;50.220;10.122;2022-10-31T08:53:17;10.80;;;8.87;;
11943;SDS011;6031;50.220;10.122;2022-10-31T08:55:44;9.33;;;7.20;;
11943;SDS011;6031;50.220;10.122;2022-10-31T08:58:11;13.50;;;8.00;;
11943;SDS011;6031;50.220;10.122;2022-10-31T09:00:39;35.40;;;16.53;;
11943;SDS011;6031;50.220;10.122;2022-10-31T09:03:05;15.07;;;10.87;;
11943;SDS011;6031;50.220;10.122;2022-10-31T09:05:35;10.77;;;7.87;;
11943;SDS011;6031;50.220;10.122;2022-10-31T09:08:01;11.43;;;7.73;;
11943;SDS011;6031;50.220;10.122;2022-10-31T09:10:29;8.47;;;7.17;;
11943;SDS011;6031;50.220;10.122;2022-10-31T09:12:59;7.63;;;6.83;;
11943;SDS011;6031;50.220;10.122;2022-10-31T09:15:42;8.43;;;6.77;;
11943;SDS011;6031;50.220;10.122;2022-10-31T09:18:10;8.23;;;7.33;;
11943;SDS011;6031;50.220;10.122;2022-10-31T09:20:36;8.73;;;7.20;;
11943;SDS011;6031;50.220;10.122;2022-10-31T09:23:07;8.10;;;6.70;;
11943;SDS011;6031;50.220;10.122;2022-10-31T09:25:35;8.63;;;6.60;;
11943;SDS011;6031;50.220;10.122;2022-10-31T09:28:01;8.57;;;7.30;;
11943;SDS011;6031;50.220;10.122;2022-10-31T09:30:28;7.60;;;6.80;;
11943;SDS011;6031;50.220;10.122;2022-10-31T09:32:56;7.93;;;7.03;;
11943;SDS011;6031;50.220;10.122;2022-10-31T09:35:26;10.17;;;6.40;;
11943;SDS011;6031;50.220;10.122;2022-10-31T09:37:55;6.73;;;5.40;;
11943;SDS011;6031;50.220;10.122;2022-10-31T09:40:23;6.50;;;5.90;;
11943;SDS011;6031;50.220;10.122;2022-10-31T09:48:45;7.70;;;5.90;;
11943;SDS011;6031;50.220;10.122;2022-10-31T09:56:42;10.17;;;6.10;;
11943;SDS011;6031;50.220;10.122;2022-10-31T09:59:18;9.83;;;5.50;;
11943;SDS011;6031;50.220;10.122;2022-10-31T10:01:51;6.87;;;5.93;;
11943;SDS011;6031;50.220;10.122;2022-10-31T10:10:00;7.70;;;6.00;;
11943;SDS011;6031;50.220;10.122;2022-10-31T10:12:40;9.00;;;5.97;;
11943;SDS011;6031;50.220;10.122;2022-10-31T10:29:34;8.20;;;7.17;;
11943;SDS011;6031;50.220;10.122;2022-10-31T10:32:12;9.70;;;7.80;;
11943;SDS011;6031;50.220;10.122;2022-10-31T10:34:46;13.07;;;8.17;;
11943;SDS011;6031;50.220;10.122;2022-10-31T10:37:31;11.23;;;7.97;;
11943;SDS011;6031;50.220;10.122;2022-10-31T10:40:08;12.17;;;10.27;;
11943;SDS011;6031;50.220;10.122;2022-10-31T10:42:43;10.90;;;9.67;;
11943;SDS011;6031;50.220;10.122;2022-10-31T10:45:34;12.50;;;9.00;;
11943;SDS011;6031;50.220;10.122;2022-10-31T10:48:26;11.57;;;8.13;;
11943;SDS011;6031;50.220;10.122;2022-10-31T10:51:01;8.20;;;7.27;;
11943;SDS011;6031;50.220;10.122;2022-10-31T10:53:44;9.83;;;7.30;;
11943;SDS011;6031;50.220;10.122;2022-10-31T10:59:13;10.83;;;7.97;;
11943;SDS011;6031;50.220;10.122;2022-10-31T11:01:43;11.13;;;7.70;;
11943;SDS011;6031;50.220;10.122;2022-10-31T11:07:06;9.67;;;7.40;;
11943;SDS011;6031;50.220;10.122;2022-10-31T11:09:34;10.77;;;8.63;;
11943;SDS011;6031;50.220;10.122;2022-10-31T11:12:11;8.03;;;6.93;;
11943;SDS011;6031;50.220;10.122;2022-10-31T11:14:50;11.40;;;7.87;;
11943;SDS011;6031;50.220;10.122;2022-10-31T11:22:27;10.00;;;7.50;;
11943;SDS011;6031;50.220;10.122;2022-10-31T11:24:53;13.67;;;7.33;;
11943;SDS011;6031;50.220;10.122;2022-10-31T11:27:22;9.43;;;6.83;;
11943;SDS011;6031;50.220;10.122;2022-10-31T11:29:49;8.53;;;7.40;;
11943;SDS011;6031;50.220;10.122;2022-10-31T11:32:24;8.90;;;7.23;;
11943;SDS011;6031;50.220;10.122;2022-10-31T11:34:52;12.27;;;7.27;;
11943;SDS011;6031;50.220;10.122;2022-10-31T11:37:26;8.33;;;6.93;;
11943;SDS011;6031;50.220;10.122;2022-10-31T11:39:53;8.13;;;6.57;;
11943;SDS011;6031;50.220;10.122;2022-10-31T11:42:21;8.27;;;6.70;;
11943;SDS011;6031;50.220;10.122;2022-10-31T11:44:48;9.27;;;7.70;;
11943;SDS011;6031;50.220;10.122;2022-10-31T11:47:16;9.27;;;6.97;;
11943;SDS011;6031;50.220;10.122;2022-10-31T11:49:46;7.57;;;6.13;;
11943;SDS011;6031;50.220;10.122;2022-10-31T11:52:20;7.47;;;6.20;;
11943;SDS011;6031;50.220;10.122;2022-10-31T11:54:59;15.30;;;6.67;;
11943;SDS011;6031;50.220;10.122;2022-10-31T11:57:42;7.53;;;6.60;;
11943;SDS011;6031;50.220;10.122;2022-10-31T12:00:26;9.17;;;6.13;;
11943;SDS011;6031;50.220;10.122;2022-10-31T12:08:23;11.70;;;6.70;;
11943;SDS011;6031;50.220;10.122;2022-10-31T12:11:03;13.33;;;7.17;;
11943;SDS011;6031;50.220;10.122;2022-10-31T12:13:48;9.10;;;6.50;;
11943;SDS011;6031;50.220;10.122;2022-10-31T12:16:28;11.83;;;7.50;;
11943;SDS011;6031;50.220;10.122;2022-10-31T12:19:04;9.73;;;7.03;;
11943;SDS011;6031;50.220;10.122;2022-10-31T12:27:01;9.60;;;6.60;;
11943;SDS011;6031;50.220;10.122;2022-10-31T12:29:43;11.83;;;6.70;;
11943;SDS011;6031;50.220;10.122;2022-10-31T12:32:26;11.30;;;6.67;;
11943;SDS011;6031;50.220;10.122;2022-10-31T12:46:13;11.43;;;6.00;;
11943;SDS011;6031;50.220;10.122;2022-10-31T12:51:48;13.87;;;6.30;;
11943;SDS011;6031;50.220;10.122;2022-10-31T12:57:19;11.37;;;7.00;;
11943;SDS011;6031;50.220;10.122;2022-10-31T12:59:52;12.37;;;9.23;;
11943;SDS011;6031;50.220;10.122;2022-10-31T13:05:29;15.37;;;10.40;;
11943;SDS011;6031;50.220;10.122;2022-10-31T13:08:11;12.23;;;8.50;;
11943;SDS011;6031;50.220;10.122;2022-10-31T13:10:43;18.30;;;11.63;;
11943;SDS011;6031;50.220;10.122;2022-10-31T13:13:33;30.23;;;18.77;;
11943;SDS011;6031;50.220;10.122;2022-10-31T13:16:16;35.70;;;17.40;;
11943;SDS011;6031;50.220;10.122;2022-10-31T13:18:48;22.97;;;12.97;;
11943;SDS011;6031;50.220;10.122;2022-10-31T13:21:27;13.70;;;9.33;;
11943;SDS011;6031;50.220;10.122;2022-10-31T13:24:03;35.47;;;20.73;;
11943;SDS011;6031;50.220;10.122;2022-10-31T13:26:36;24.27;;;13.67;;
11943;SDS011;6031;50.220;10.122;2022-10-31T13:29:49;16.50;;;9.70;;
11943;SDS011;6031;50.220;10.122;2022-10-31T13:31:57;13.03;;;9.17;;
11943;SDS011;6031;50.220;10.122;2022-10-31T13:34:24;25.43;;;12.53;;
11943;SDS011;6031;50.220;10.122;2022-10-31T13:36:57;11.73;;;7.57;;
11943;SDS011;6031;50.220;10.122;2022-10-31T13:45:51;10.20;;;7.33;;
11943;SDS011;6031;50.220;10.122;2022-10-31T13:48:20;11.50;;;7.03;;
11943;SDS011;6031;50.220;10.122;2022-10-31T13:51:04;11.60;;;6.90;;
11943;SDS011;6031;50.220;10.122;2022-10-31T13:53:36;14.87;;;7.13;;
11943;SDS011;6031;50.220;10.122;2022-10-31T13:56:26;10.80;;;7.10;;
11943;SDS011;6031;50.220;10.122;2022-10-31T13:58:58;17.33;;;7.90;;
11943;SDS011;6031;50.220;10.122;2022-10-31T14:01:34;11.80;;;7.23;;
11943;SDS011;6031;50.220;10.122;2022-10-31T14:04:04;14.03;;;7.23;;
11943;SDS011;6031;50.220;10.122;2022-10-31T14:06:55;10.93;;;6.67;;
11943;SDS011;6031;50.220;10.122;2022-10-31T14:14:51;12.27;;;7.17;;
11943;SDS011;6031;50.220;10.122;2022-10-31T14:17:26;9.13;;;6.60;;
11943;SDS011;6031;50.220;10.122;2022-10-31T14:20:41;15.90;;;6.50;;
11943;SDS011;6031;50.220;10.122;2022-10-31T14:22:56;9.37;;;6.00;;
11943;SDS011;6031;50.220;10.122;2022-10-31T14:27:54;8.37;;;6.80;;
11943;SDS011;6031;50.220;10.122;2022-10-31T14:30:22;12.87;;;7.17;;
11943;SDS011;6031;50.220;10.122;2022-10-31T14:32:50;18.07;;;12.90;;
11943;SDS011;6031;50.220;10.122;2022-10-31T14:35:18;11.23;;;8.40;;
11943;SDS011;6031;50.220;10.122;2022-10-31T14:40:33;11.77;;;6.93;;
11943;SDS011;6031;50.220;10.122;2022-10-31T14:43:05;11.77;;;6.70;;
11943;SDS011;6031;50.220;10.122;2022-10-31T14:51:25;10.83;;;8.03;;
11943;SDS011;6031;50.220;10.122;2022-10-31T14:53:59;11.03;;;7.37;;
11943;SDS011;6031;50.220;10.122;2022-10-31T14:56:26;15.63;;;7.97;;
11943;SDS011;6031;50.220;10.122;2022-10-31T14:58:55;12.80;;;6.97;;
11943;SDS011;6031;50.220;10.122;2022-10-31T15:01:28;8.93;;;6.77;;
11943;SDS011;6031;50.220;10.122;2022-10-31T15:03:55;10.17;;;7.00;;
11943;SDS011;6031;50.220;10.122;2022-10-31T15:06:44;9.90;;;6.90;;
11943;SDS011;6031;50.220;10.122;2022-10-31T15:09:28;9.30;;;7.20;;
11943;SDS011;6031;50.220;10.122;2022-10-31T15:11:57;9.83;;;7.03;;
11943;SDS011;6031;50.220;10.122;2022-10-31T15:14:39;15.13;;;10.43;;
11943;SDS011;6031;50.220;10.122;2022-10-31T15:17:05;14.57;;;8.70;;
11943;SDS011;6031;50.220;10.122;2022-10-31T15:19:30;14.73;;;10.70;;
11943;SDS011;6031;50.220;10.122;2022-10-31T15:21:58;11.63;;;9.17;;
11943;SDS011;6031;50.220;10.122;2022-10-31T15:24:27;11.57;;;7.07;;
11943;SDS011;6031;50.220;10.122;2022-10-31T15:27:01;9.27;;;6.77;;
11943;SDS011;6031;50.220;10.122;2022-10-31T15:29:27;10.33;;;6.97;;
11943;SDS011;6031;50.220;10.122;2022-10-31T15:37:12;13.00;;;6.83;;
11943;SDS011;6031;50.220;10.122;2022-10-31T15:39:40;12.17;;;7.43;;
11943;SDS011;6031;50.220;10.122;2022-10-31T15:45:04;13.43;;;7.77;;
11943;SDS011;6031;50.220;10.122;2022-10-31T15:47:57;12.33;;;8.70;;
11943;SDS011;6031;50.220;10.122;2022-10-31T15:50:38;14.47;;;9.10;;
11943;SDS011;6031;50.220;10.122;2022-10-31T15:53:10;18.67;;;8.47;;
11943;SDS011;6031;50.220;10.122;2022-10-31T15:55:49;10.67;;;7.63;;
11943;SDS011;6031;50.220;10.122;2022-10-31T15:58:18;13.13;;;8.60;;
11943;SDS011;6031;50.220;10.122;2022-10-31T16:00:44;12.73;;;9.47;;
11943;SDS011;6031;50.220;10.122;2022-10-31T16:05:52;16.20;;;12.20;;
11943;SDS011;6031;50.220;10.122;2022-10-31T16:10:54;15.83;;;11.63;;
11943;SDS011;6031;50.220;10.122;2022-10-31T16:13:33;16.80;;;13.33;;
11943;SDS011;6031;50.220;10.122;2022-10-31T16:16:13;18.70;;;12.13;;
11943;SDS011;6031;50.220;10.122;2022-10-31T16:18:41;19.17;;;11.57;;
11943;SDS011;6031;50.220;10.122;2022-10-31T16:21:07;16.20;;;10.00;;
11943;SDS011;6031;50.220;10.122;2022-10-31T16:23:33;11.30;;;9.30;;
11943;SDS011;6031;50.220;10.122;2022-10-31T16:26:05;9.80;;;8.80;;
11943;SDS011;6031;50.220;10.122;2022-10-31T16:28:31;11.13;;;8.33;;
11943;SDS011;6031;50.220;10.122;2022-10-31T16:30:58;13.13;;;8.57;;
11943;SDS011;6031;50.220;10.122;2022-10-31T16:36:01;14.90;;;10.03;;
11943;SDS011;6031;50.220;10.122;2022-10-31T16:38:52;15.77;;;9.73;;
11943;SDS011;6031;50.220;10.122;2022-10-31T16:41:21;17.63;;;13.77;;
11943;SDS011;6031;50.220;10.122;2022-10-31T16:43:47;28.33;;;17.33;;
11943;SDS011;6031;50.220;10.122;2022-10-31T16:46:14;28.37;;;18.30;;
11943;SDS011;6031;50.220;10.122;2022-10-31T16:48:42;21.33;;;14.47;;
11943;SDS011;6031;50.220;10.122;2022-10-31T16:51:07;19.77;;;12.60;;
11943;SDS011;6031;50.220;10.122;2022-10-31T16:53:33;21.50;;;14.33;;
11943;SDS011;6031;50.220;10.122;2022-10-31T16:55:58;21.73;;;13.90;;
11943;SDS011;6031;50.220;10.122;2022-10-31T16:58:27;18.83;;;10.67;;
11943;SDS011;6031;50.220;10.122;2022-10-31T17:00:54;11.80;;;9.20;;
11943;SDS011;6031;50.220;10.122;2022-10-31T17:03:20;13.50;;;10.77;;
11943;SDS011;6031;50.220;10.122;2022-10-31T17:05:46;13.40;;;9.43;;
11943;SDS011;6031;50.220;10.122;2022-10-31T17:08:12;15.77;;;10.57;;
11943;SDS011;6031;50.220;10.122;2022-10-31T17:10:38;15.10;;;10.77;;
11943;SDS011;6031;50.220;10.122;2022-10-31T17:13:06;20.27;;;13.33;;